sensor_id;sensor_type;location;lat;lon;timestamp;P1;durP1;ratioP1;P2;durP2;ratioP2
4909;SDS011;2470;49.868;8.660;2023-04-06T00:01:09;4.30;;;3.33;;
4909;SDS011;2470;49.868;8.660;2023-04-06T00:03:35;4.90;;;3.00;;
4909;SDS011;2470;49.868;8.660;2023-04-06T00:06:01;6.00;;;3.50;;
4909;SDS011;2470;49.868;8.660;2023-04-06T00:08:27;6.20;;;3.30;;
4909;SDS011;2470;49.868;8.660;2023-04-06T00:10:53;4.13;;;3.00;;
4909;SDS011;2470;49.868;8.660;2023-04-06T00:13:19;4.50;;;3.20;;
4909;SDS011;2470;49.868;8.660;2023-04-06T00:15:45;5.00;;;2.97;;
4909;SDS011;2470;49.868;8.660;2023-04-06T00:18:10;5.77;;;3.03;;
4909;SDS011;2470;49.868;8.660;2023-04-06T00:20:36;6.40;;;3.30;;
4909;SDS011;2470;49.868;8.660;2023-04-06T00:23:01;8.97;;;2.77;;
4909;SDS011;2470;49.868;8.660;2023-04-06T00:25:27;6.03;;;4.20;;
4909;SDS011;2470;49.868;8.660;2023-04-06T00:27:52;6.73;;;2.80;;
4909;SDS011;2470;49.868;8.660;2023-04-06T00:30:18;4.63;;;3.30;;
4909;SDS011;2470;49.868;8.660;2023-04-06T00:32:43;4.70;;;2.97;;
4909;SDS011;2470;49.868;8.660;2023-04-06T00:35:09;4.83;;;3.13;;
4909;SDS011;2470;49.868;8.660;2023-04-06T00:37:35;5.53;;;3.00;;
4909;SDS011;2470;49.868;8.660;2023-04-06T00:40:00;4.87;;;3.67;;
4909;SDS011;2470;49.868;8.660;2023-04-06T00:42:27;2.80;;;2.47;;
4909;SDS011;2470;49.868;8.660;2023-04-06T00:44:53;4.37;;;3.40;;
4909;SDS011;2470;49.868;8.660;2023-04-06T00:47:19;5.73;;;3.83;;
4909;SDS011;2470;49.868;8.660;2023-04-06T00:49:45;3.80;;;3.10;;
4909;SDS011;2470;49.868;8.660;2023-04-06T00:52:11;5.53;;;3.40;;
4909;SDS011;2470;49.868;8.660;2023-04-06T00:54:36;6.47;;;3.10;;
4909;SDS011;2470;49.868;8.660;2023-04-06T00:57:02;5.03;;;2.90;;
4909;SDS011;2470;49.868;8.660;2023-04-06T00:59:27;8.03;;;2.70;;
4909;SDS011;2470;49.868;8.660;2023-04-06T01:01:53;5.07;;;2.90;;
4909;SDS011;2470;49.868;8.660;2023-04-06T01:04:19;3.50;;;2.63;;
4909;SDS011;2470;49.868;8.660;2023-04-06T01:06:47;4.70;;;3.43;;
4909;SDS011;2470;49.868;8.660;2023-04-06T01:09:13;5.80;;;3.20;;
4909;SDS011;2470;49.868;8.660;2023-04-06T01:11:39;3.33;;;2.90;;
4909;SDS011;2470;49.868;8.660;2023-04-06T01:14:04;3.50;;;2.93;;
4909;SDS011;2470;49.868;8.660;2023-04-06T01:16:30;7.70;;;3.00;;
4909;SDS011;2470;49.868;8.660;2023-04-06T01:18:56;7.03;;;3.07;;
4909;SDS011;2470;49.868;8.660;2023-04-06T01:21:21;3.63;;;2.57;;
4909;SDS011;2470;49.868;8.660;2023-04-06T01:23:47;2.40;;;2.20;;
4909;SDS011;2470;49.868;8.660;2023-04-06T01:26:12;5.03;;;3.37;;
4909;SDS011;2470;49.868;8.660;2023-04-06T01:28:38;3.57;;;2.50;;
4909;SDS011;2470;49.868;8.660;2023-04-06T01:31:05;3.17;;;2.57;;
4909;SDS011;2470;49.868;8.660;2023-04-06T01:33:31;9.70;;;2.97;;
4909;SDS011;2470;49.868;8.660;2023-04-06T01:35:57;3.30;;;2.33;;
4909;SDS011;2470;49.868;8.660;2023-04-06T01:38:23;4.50;;;2.83;;
4909;SDS011;2470;49.868;8.660;2023-04-06T01:40:48;4.47;;;3.60;;
4909;SDS011;2470;49.868;8.660;2023-04-06T01:43:14;4.37;;;2.80;;
4909;SDS011;2470;49.868;8.660;2023-04-06T01:45:39;3.20;;;2.80;;
4909;SDS011;2470;49.868;8.660;2023-04-06T01:48:05;3.57;;;2.43;;
4909;SDS011;2470;49.868;8.660;2023-04-06T01:50:32;4.80;;;2.90;;
4909;SDS011;2470;49.868;8.660;2023-04-06T01:52:57;7.33;;;3.60;;
4909;SDS011;2470;49.868;8.660;2023-04-06T01:55:23;5.13;;;2.83;;
4909;SDS011;2470;49.868;8.660;2023-04-06T01:57:48;2.80;;;2.60;;
4909;SDS011;2470;49.868;8.660;2023-04-06T02:00:14;3.20;;;2.43;;
4909;SDS011;2470;49.868;8.660;2023-04-06T02:02:40;4.80;;;3.00;;
4909;SDS011;2470;49.868;8.660;2023-04-06T02:05:07;4.87;;;2.60;;
4909;SDS011;2470;49.868;8.660;2023-04-06T02:07:33;3.80;;;2.90;;
4909;SDS011;2470;49.868;8.660;2023-04-06T02:09:59;4.87;;;3.10;;
4909;SDS011;2470;49.868;8.660;2023-04-06T02:12:24;5.00;;;3.50;;
4909;SDS011;2470;49.868;8.660;2023-04-06T02:14:50;6.67;;;3.83;;
4909;SDS011;2470;49.868;8.660;2023-04-06T02:17:16;5.20;;;3.40;;
4909;SDS011;2470;49.868;8.660;2023-04-06T02:19:42;10.30;;;3.90;;
4909;SDS011;2470;49.868;8.660;2023-04-06T02:22:07;5.20;;;3.23;;
4909;SDS011;2470;49.868;8.660;2023-04-06T02:24:32;4.77;;;3.03;;
4909;SDS011;2470;49.868;8.660;2023-04-06T02:26:58;4.27;;;2.60;;
4909;SDS011;2470;49.868;8.660;2023-04-06T02:29:23;3.40;;;2.80;;
4909;SDS011;2470;49.868;8.660;2023-04-06T02:31:49;3.43;;;2.87;;
4909;SDS011;2470;49.868;8.660;2023-04-06T02:34:14;2.93;;;2.63;;
4909;SDS011;2470;49.868;8.660;2023-04-06T02:36:45;5.10;;;2.40;;
4909;SDS011;2470;49.868;8.660;2023-04-06T02:39:12;2.60;;;2.20;;
4909;SDS011;2470;49.868;8.660;2023-04-06T02:41:38;3.90;;;2.83;;
4909;SDS011;2470;49.868;8.660;2023-04-06T02:44:03;6.77;;;2.97;;
4909;SDS011;2470;49.868;8.660;2023-04-06T02:46:30;4.47;;;2.80;;
4909;SDS011;2470;49.868;8.660;2023-04-06T02:48:56;3.27;;;2.10;;
4909;SDS011;2470;49.868;8.660;2023-04-06T02:51:22;2.60;;;2.40;;
4909;SDS011;2470;49.868;8.660;2023-04-06T02:53:47;3.07;;;2.40;;
4909;SDS011;2470;49.868;8.660;2023-04-06T02:56:13;4.07;;;2.63;;
4909;SDS011;2470;49.868;8.660;2023-04-06T02:58:38;2.50;;;2.30;;
4909;SDS011;2470;49.868;8.660;2023-04-06T03:01:04;3.70;;;3.23;;
4909;SDS011;2470;49.868;8.660;2023-04-06T03:03:29;4.47;;;2.53;;
4909;SDS011;2470;49.868;8.660;2023-04-06T03:05:55;7.80;;;3.30;;
4909;SDS011;2470;49.868;8.660;2023-04-06T03:08:23;7.60;;;2.90;;
4909;SDS011;2470;49.868;8.660;2023-04-06T03:10:49;3.20;;;2.70;;
4909;SDS011;2470;49.868;8.660;2023-04-06T03:13:15;4.63;;;3.60;;
4909;SDS011;2470;49.868;8.660;2023-04-06T03:15:40;4.20;;;2.50;;
4909;SDS011;2470;49.868;8.660;2023-04-06T03:18:06;3.83;;;2.90;;
4909;SDS011;2470;49.868;8.660;2023-04-06T03:20:31;4.43;;;3.30;;
4909;SDS011;2470;49.868;8.660;2023-04-06T03:22:57;6.93;;;3.10;;
4909;SDS011;2470;49.868;8.660;2023-04-06T03:25:23;5.63;;;2.93;;
4909;SDS011;2470;49.868;8.660;2023-04-06T03:27:48;4.73;;;2.50;;
4909;SDS011;2470;49.868;8.660;2023-04-06T03:30:14;6.37;;;2.83;;
4909;SDS011;2470;49.868;8.660;2023-04-06T03:32:42;3.73;;;2.23;;
4909;SDS011;2470;49.868;8.660;2023-04-06T03:35:08;2.63;;;2.43;;
4909;SDS011;2470;49.868;8.660;2023-04-06T03:37:34;4.67;;;3.17;;
4909;SDS011;2470;49.868;8.660;2023-04-06T03:40:00;3.90;;;2.47;;
4909;SDS011;2470;49.868;8.660;2023-04-06T03:42:26;5.20;;;2.40;;
4909;SDS011;2470;49.868;8.660;2023-04-06T03:44:51;4.87;;;2.50;;
4909;SDS011;2470;49.868;8.660;2023-04-06T03:47:17;6.93;;;2.90;;
4909;SDS011;2470;49.868;8.660;2023-04-06T03:49:42;3.80;;;2.60;;
4909;SDS011;2470;49.868;8.660;2023-04-06T03:52:08;2.80;;;2.60;;
4909;SDS011;2470;49.868;8.660;2023-04-06T03:54:33;3.57;;;2.23;;
4909;SDS011;2470;49.868;8.660;2023-04-06T03:56:59;3.53;;;2.63;;
4909;SDS011;2470;49.868;8.660;2023-04-06T03:59:25;5.93;;;2.90;;
4909;SDS011;2470;49.868;8.660;2023-04-06T04:01:51;12.27;;;3.33;;
4909;SDS011;2470;49.868;8.660;2023-04-06T04:04:16;2.07;;;1.97;;
4909;SDS011;2470;49.868;8.660;2023-04-06T04:06:42;5.87;;;3.03;;
4909;SDS011;2470;49.868;8.660;2023-04-06T04:09:07;4.50;;;2.57;;
4909;SDS011;2470;49.868;8.660;2023-04-06T04:11:33;3.13;;;2.50;;
4909;SDS011;2470;49.868;8.660;2023-04-06T04:13:58;9.77;;;3.43;;
4909;SDS011;2470;49.868;8.660;2023-04-06T04:16:24;5.10;;;3.00;;
4909;SDS011;2470;49.868;8.660;2023-04-06T04:18:49;4.10;;;2.40;;
4909;SDS011;2470;49.868;8.660;2023-04-06T04:21:15;5.10;;;3.40;;
4909;SDS011;2470;49.868;8.660;2023-04-06T04:23:40;5.47;;;3.50;;
4909;SDS011;2470;49.868;8.660;2023-04-06T04:26:06;19.03;;;3.27;;
4909;SDS011;2470;49.868;8.660;2023-04-06T04:28:31;6.53;;;3.37;;
4909;SDS011;2470;49.868;8.660;2023-04-06T04:30:57;4.47;;;3.40;;
4909;SDS011;2470;49.868;8.660;2023-04-06T04:33:22;6.83;;;3.57;;
4909;SDS011;2470;49.868;8.660;2023-04-06T04:35:48;3.43;;;2.67;;
4909;SDS011;2470;49.868;8.660;2023-04-06T04:38:13;14.33;;;2.73;;
4909;SDS011;2470;49.868;8.660;2023-04-06T04:40:39;8.00;;;3.33;;
4909;SDS011;2470;49.868;8.660;2023-04-06T04:43:05;7.77;;;2.60;;
4909;SDS011;2470;49.868;8.660;2023-04-06T04:45:30;7.23;;;3.10;;
4909;SDS011;2470;49.868;8.660;2023-04-06T04:47:56;13.87;;;3.27;;
4909;SDS011;2470;49.868;8.660;2023-04-06T04:50:21;4.07;;;2.67;;
4909;SDS011;2470;49.868;8.660;2023-04-06T04:52:47;3.77;;;2.43;;
4909;SDS011;2470;49.868;8.660;2023-04-06T04:55:12;3.37;;;2.70;;
4909;SDS011;2470;49.868;8.660;2023-04-06T04:57:38;8.63;;;3.60;;
4909;SDS011;2470;49.868;8.660;2023-04-06T05:00:04;12.03;;;4.00;;
4909;SDS011;2470;49.868;8.660;2023-04-06T05:02:30;3.50;;;2.90;;
4909;SDS011;2470;49.868;8.660;2023-04-06T05:04:56;4.03;;;2.90;;
4909;SDS011;2470;49.868;8.660;2023-04-06T05:07:21;6.67;;;3.70;;
4909;SDS011;2470;49.868;8.660;2023-04-06T05:09:47;3.13;;;2.83;;
4909;SDS011;2470;49.868;8.660;2023-04-06T05:12:14;4.50;;;3.07;;
4909;SDS011;2470;49.868;8.660;2023-04-06T05:14:39;7.77;;;2.50;;
4909;SDS011;2470;49.868;8.660;2023-04-06T05:17:05;7.00;;;4.67;;
4909;SDS011;2470;49.868;8.660;2023-04-06T05:19:31;4.30;;;3.17;;
4909;SDS011;2470;49.868;8.660;2023-04-06T05:21:56;5.33;;;3.23;;
4909;SDS011;2470;49.868;8.660;2023-04-06T05:24:22;3.27;;;2.80;;
4909;SDS011;2470;49.868;8.660;2023-04-06T05:26:48;6.10;;;3.67;;
4909;SDS011;2470;49.868;8.660;2023-04-06T05:29:13;4.40;;;3.47;;
4909;SDS011;2470;49.868;8.660;2023-04-06T05:31:39;6.20;;;3.97;;
4909;SDS011;2470;49.868;8.660;2023-04-06T05:34:05;3.70;;;2.90;;
4909;SDS011;2470;49.868;8.660;2023-04-06T05:36:31;2.87;;;2.53;;
4909;SDS011;2470;49.868;8.660;2023-04-06T05:38:57;4.13;;;2.50;;
4909;SDS011;2470;49.868;8.660;2023-04-06T05:41:23;6.70;;;3.87;;
4909;SDS011;2470;49.868;8.660;2023-04-06T05:43:49;4.30;;;2.97;;
4909;SDS011;2470;49.868;8.660;2023-04-06T05:46:15;3.43;;;2.93;;
4909;SDS011;2470;49.868;8.660;2023-04-06T05:48:40;6.87;;;3.53;;
4909;SDS011;2470;49.868;8.660;2023-04-06T05:51:06;7.73;;;3.77;;
4909;SDS011;2470;49.868;8.660;2023-04-06T05:53:31;9.40;;;4.07;;
4909;SDS011;2470;49.868;8.660;2023-04-06T05:56:00;10.90;;;3.47;;
4909;SDS011;2470;49.868;8.660;2023-04-06T05:58:26;3.97;;;3.33;;
4909;SDS011;2470;49.868;8.660;2023-04-06T06:00:56;6.57;;;3.80;;
4909;SDS011;2470;49.868;8.660;2023-04-06T06:03:25;5.13;;;3.53;;
4909;SDS011;2470;49.868;8.660;2023-04-06T06:05:50;7.80;;;3.90;;
4909;SDS011;2470;49.868;8.660;2023-04-06T06:08:16;12.53;;;4.10;;
4909;SDS011;2470;49.868;8.660;2023-04-06T06:10:41;10.70;;;4.00;;
4909;SDS011;2470;49.868;8.660;2023-04-06T06:13:07;7.87;;;3.37;;
4909;SDS011;2470;49.868;8.660;2023-04-06T06:15:33;8.33;;;3.90;;
4909;SDS011;2470;49.868;8.660;2023-04-06T06:17:59;7.67;;;4.07;;
4909;SDS011;2470;49.868;8.660;2023-04-06T06:20:25;10.07;;;4.67;;
4909;SDS011;2470;49.868;8.660;2023-04-06T06:22:51;6.83;;;4.93;;
4909;SDS011;2470;49.868;8.660;2023-04-06T06:25:17;10.23;;;5.73;;
4909;SDS011;2470;49.868;8.660;2023-04-06T06:27:42;8.50;;;4.00;;
4909;SDS011;2470;49.868;8.660;2023-04-06T06:30:08;7.47;;;4.10;;
4909;SDS011;2470;49.868;8.660;2023-04-06T06:32:34;10.30;;;4.33;;
4909;SDS011;2470;49.868;8.660;2023-04-06T06:34:59;12.63;;;4.30;;
4909;SDS011;2470;49.868;8.660;2023-04-06T06:37:25;9.73;;;4.60;;
4909;SDS011;2470;49.868;8.660;2023-04-06T06:39:50;10.73;;;4.90;;
4909;SDS011;2470;49.868;8.660;2023-04-06T06:42:16;6.53;;;4.80;;
4909;SDS011;2470;49.868;8.660;2023-04-06T06:44:41;6.07;;;3.87;;
4909;SDS011;2470;49.868;8.660;2023-04-06T06:47:07;8.87;;;4.50;;
4909;SDS011;2470;49.868;8.660;2023-04-06T06:49:32;9.17;;;4.50;;
4909;SDS011;2470;49.868;8.660;2023-04-06T06:51:58;9.77;;;5.43;;
4909;SDS011;2470;49.868;8.660;2023-04-06T06:54:23;7.47;;;4.70;;
4909;SDS011;2470;49.868;8.660;2023-04-06T06:56:49;13.40;;;6.23;;
4909;SDS011;2470;49.868;8.660;2023-04-06T06:59:14;9.33;;;4.80;;
4909;SDS011;2470;49.868;8.660;2023-04-06T07:01:41;11.30;;;5.47;;
4909;SDS011;2470;49.868;8.660;2023-04-06T07:04:06;9.77;;;4.90;;
4909;SDS011;2470;49.868;8.660;2023-04-06T07:06:34;12.67;;;4.93;;
4909;SDS011;2470;49.868;8.660;2023-04-06T07:09:00;5.53;;;3.93;;
4909;SDS011;2470;49.868;8.660;2023-04-06T07:11:27;6.63;;;4.50;;
4909;SDS011;2470;49.868;8.660;2023-04-06T07:13:53;6.90;;;5.20;;
4909;SDS011;2470;49.868;8.660;2023-04-06T07:16:19;8.27;;;4.60;;
4909;SDS011;2470;49.868;8.660;2023-04-06T07:18:45;9.83;;;5.80;;
4909;SDS011;2470;49.868;8.660;2023-04-06T07:21:11;7.80;;;5.03;;
4909;SDS011;2470;49.868;8.660;2023-04-06T07:23:36;6.43;;;4.30;;
4909;SDS011;2470;49.868;8.660;2023-04-06T07:26:02;6.07;;;4.43;;
4909;SDS011;2470;49.868;8.660;2023-04-06T07:28:27;6.40;;;4.73;;
4909;SDS011;2470;49.868;8.660;2023-04-06T07:30:53;13.23;;;5.23;;
4909;SDS011;2470;49.868;8.660;2023-04-06T07:33:19;8.27;;;4.43;;
4909;SDS011;2470;49.868;8.660;2023-04-06T07:35:45;12.43;;;5.60;;
4909;SDS011;2470;49.868;8.660;2023-04-06T07:38:11;6.77;;;4.57;;
4909;SDS011;2470;49.868;8.660;2023-04-06T07:40:37;6.90;;;4.70;;
4909;SDS011;2470;49.868;8.660;2023-04-06T07:43:02;9.03;;;5.33;;
4909;SDS011;2470;49.868;8.660;2023-04-06T07:45:28;10.43;;;5.23;;
4909;SDS011;2470;49.868;8.660;2023-04-06T07:47:54;6.60;;;4.37;;
4909;SDS011;2470;49.868;8.660;2023-04-06T07:50:19;11.53;;;5.50;;
4909;SDS011;2470;49.868;8.660;2023-04-06T07:52:45;14.20;;;5.00;;
4909;SDS011;2470;49.868;8.660;2023-04-06T07:55:11;8.83;;;5.27;;
4909;SDS011;2470;49.868;8.660;2023-04-06T07:57:36;10.30;;;5.57;;
4909;SDS011;2470;49.868;8.660;2023-04-06T08:00:02;12.90;;;4.47;;
4909;SDS011;2470;49.868;8.660;2023-04-06T08:02:29;8.10;;;4.97;;
4909;SDS011;2470;49.868;8.660;2023-04-06T08:04:55;10.57;;;4.40;;
4909;SDS011;2470;49.868;8.660;2023-04-06T08:07:20;8.93;;;5.37;;
4909;SDS011;2470;49.868;8.660;2023-04-06T08:09:46;9.93;;;5.33;;
4909;SDS011;2470;49.868;8.660;2023-04-06T08:12:11;9.93;;;5.23;;
4909;SDS011;2470;49.868;8.660;2023-04-06T08:14:37;6.83;;;4.73;;
4909;SDS011;2470;49.868;8.660;2023-04-06T08:17:03;11.07;;;4.83;;
4909;SDS011;2470;49.868;8.660;2023-04-06T08:19:28;6.60;;;4.13;;
4909;SDS011;2470;49.868;8.660;2023-04-06T08:21:54;10.50;;;5.00;;
4909;SDS011;2470;49.868;8.660;2023-04-06T08:24:19;12.93;;;5.93;;
4909;SDS011;2470;49.868;8.660;2023-04-06T08:26:45;8.93;;;4.50;;
4909;SDS011;2470;49.868;8.660;2023-04-06T08:29:10;9.47;;;5.50;;
4909;SDS011;2470;49.868;8.660;2023-04-06T08:31:36;6.73;;;4.83;;
4909;SDS011;2470;49.868;8.660;2023-04-06T08:34:05;6.60;;;4.53;;
4909;SDS011;2470;49.868;8.660;2023-04-06T08:36:30;8.97;;;5.60;;
4909;SDS011;2470;49.868;8.660;2023-04-06T08:38:56;6.63;;;4.60;;
4909;SDS011;2470;49.868;8.660;2023-04-06T08:41:21;7.80;;;5.33;;
4909;SDS011;2470;49.868;8.660;2023-04-06T08:43:48;8.33;;;5.13;;
4909;SDS011;2470;49.868;8.660;2023-04-06T08:46:17;10.90;;;5.27;;
4909;SDS011;2470;49.868;8.660;2023-04-06T08:48:43;5.23;;;4.30;;
4909;SDS011;2470;49.868;8.660;2023-04-06T08:51:10;9.63;;;5.53;;
4909;SDS011;2470;49.868;8.660;2023-04-06T08:53:36;9.63;;;5.80;;
4909;SDS011;2470;49.868;8.660;2023-04-06T08:56:04;5.93;;;4.63;;
4909;SDS011;2470;49.868;8.660;2023-04-06T08:58:32;10.27;;;4.97;;
4909;SDS011;2470;49.868;8.660;2023-04-06T09:01:00;4.67;;;3.77;;
4909;SDS011;2470;49.868;8.660;2023-04-06T09:03:30;9.33;;;5.17;;
4909;SDS011;2470;49.868;8.660;2023-04-06T09:05:58;7.50;;;4.60;;
4909;SDS011;2470;49.868;8.660;2023-04-06T09:08:24;10.40;;;4.70;;
4909;SDS011;2470;49.868;8.660;2023-04-06T09:10:50;6.17;;;4.57;;
4909;SDS011;2470;49.868;8.660;2023-04-06T09:13:16;7.90;;;5.10;;
4909;SDS011;2470;49.868;8.660;2023-04-06T09:15:42;9.47;;;4.70;;
4909;SDS011;2470;49.868;8.660;2023-04-06T09:18:08;7.07;;;4.23;;
4909;SDS011;2470;49.868;8.660;2023-04-06T09:20:33;5.30;;;3.90;;
4909;SDS011;2470;49.868;8.660;2023-04-06T09:22:59;5.33;;;3.90;;
4909;SDS011;2470;49.868;8.660;2023-04-06T09:25:25;13.67;;;5.30;;
4909;SDS011;2470;49.868;8.660;2023-04-06T09:27:58;6.73;;;4.47;;
4909;SDS011;2470;49.868;8.660;2023-04-06T09:30:25;8.67;;;4.97;;
4909;SDS011;2470;49.868;8.660;2023-04-06T09:32:53;9.63;;;4.20;;
4909;SDS011;2470;49.868;8.660;2023-04-06T09:35:20;13.07;;;6.00;;
4909;SDS011;2470;49.868;8.660;2023-04-06T09:37:47;9.90;;;4.77;;
4909;SDS011;2470;49.868;8.660;2023-04-06T09:40:13;11.07;;;4.97;;
4909;SDS011;2470;49.868;8.660;2023-04-06T09:42:44;10.20;;;4.13;;
4909;SDS011;2470;49.868;8.660;2023-04-06T09:45:11;7.40;;;3.87;;
4909;SDS011;2470;49.868;8.660;2023-04-06T09:47:40;9.77;;;5.23;;
4909;SDS011;2470;49.868;8.660;2023-04-06T09:50:09;10.40;;;4.70;;
4909;SDS011;2470;49.868;8.660;2023-04-06T09:55:10;7.07;;;4.30;;
4909;SDS011;2470;49.868;8.660;2023-04-06T09:57:45;10.90;;;5.50;;
4909;SDS011;2470;49.868;8.660;2023-04-06T10:00:14;11.17;;;4.70;;
4909;SDS011;2470;49.868;8.660;2023-04-06T10:08:37;8.00;;;4.37;;
4909;SDS011;2470;49.868;8.660;2023-04-06T10:11:08;11.63;;;4.73;;
4909;SDS011;2470;49.868;8.660;2023-04-06T10:13:35;8.70;;;5.03;;
4909;SDS011;2470;49.868;8.660;2023-04-06T10:16:01;9.50;;;4.10;;
4909;SDS011;2470;49.868;8.660;2023-04-06T10:18:27;13.57;;;6.07;;
4909;SDS011;2470;49.868;8.660;2023-04-06T10:20:53;8.83;;;5.23;;
4909;SDS011;2470;49.868;8.660;2023-04-06T10:23:35;6.47;;;4.53;;
4909;SDS011;2470;49.868;8.660;2023-04-06T10:26:16;9.47;;;4.53;;
4909;SDS011;2470;49.868;8.660;2023-04-06T10:28:45;10.00;;;4.03;;
4909;SDS011;2470;49.868;8.660;2023-04-06T10:31:12;9.30;;;4.70;;
4909;SDS011;2470;49.868;8.660;2023-04-06T10:33:38;6.90;;;4.17;;
4909;SDS011;2470;49.868;8.660;2023-04-06T10:36:25;9.07;;;4.60;;
4909;SDS011;2470;49.868;8.660;2023-04-06T10:38:56;9.63;;;4.60;;
4909;SDS011;2470;49.868;8.660;2023-04-06T10:41:24;14.00;;;5.20;;
4909;SDS011;2470;49.868;8.660;2023-04-06T10:44:00;8.50;;;4.87;;
4909;SDS011;2470;49.868;8.660;2023-04-06T10:46:30;7.57;;;4.70;;
4909;SDS011;2470;49.868;8.660;2023-04-06T10:48:58;8.43;;;4.80;;
4909;SDS011;2470;49.868;8.660;2023-04-06T10:51:37;10.40;;;4.43;;
4909;SDS011;2470;49.868;8.660;2023-04-06T10:54:03;11.17;;;5.30;;
4909;SDS011;2470;49.868;8.660;2023-04-06T10:56:30;10.40;;;5.93;;
4909;SDS011;2470;49.868;8.660;2023-04-06T10:59:01;8.23;;;4.97;;
4909;SDS011;2470;49.868;8.660;2023-04-06T11:01:27;8.00;;;4.70;;
4909;SDS011;2470;49.868;8.660;2023-04-06T11:03:56;6.90;;;4.60;;
4909;SDS011;2470;49.868;8.660;2023-04-06T11:06:25;11.00;;;5.93;;
4909;SDS011;2470;49.868;8.660;2023-04-06T11:08:53;10.37;;;4.83;;
4909;SDS011;2470;49.868;8.660;2023-04-06T11:11:20;10.27;;;5.10;;
4909;SDS011;2470;49.868;8.660;2023-04-06T11:13:51;13.50;;;4.93;;
4909;SDS011;2470;49.868;8.660;2023-04-06T11:16:24;10.27;;;5.03;;
4909;SDS011;2470;49.868;8.660;2023-04-06T11:26:49;10.55;;;5.38;;
4909;SDS011;2470;49.868;8.660;2023-04-06T11:29:20;10.02;;;5.18;;
4909;SDS011;2470;49.868;8.660;2023-04-06T11:31:52;9.95;;;5.20;;
4909;SDS011;2470;49.868;8.660;2023-04-06T11:34:39;9.98;;;5.00;;
4909;SDS011;2470;49.868;8.660;2023-04-06T11:37:10;8.45;;;5.07;;
4909;SDS011;2470;49.868;8.660;2023-04-06T11:39:37;10.15;;;4.63;;
4909;SDS011;2470;49.868;8.660;2023-04-06T11:42:08;12.73;;;5.28;;
4909;SDS011;2470;49.868;8.660;2023-04-06T11:44:38;8.88;;;5.13;;
4909;SDS011;2470;49.868;8.660;2023-04-06T11:47:06;7.82;;;4.28;;
4909;SDS011;2470;49.868;8.660;2023-04-06T11:49:36;6.95;;;4.00;;
4909;SDS011;2470;49.868;8.660;2023-04-06T11:52:03;10.93;;;5.20;;
4909;SDS011;2470;49.868;8.660;2023-04-06T11:54:49;9.07;;;4.22;;
4909;SDS011;2470;49.868;8.660;2023-04-06T11:57:16;9.25;;;5.22;;
4909;SDS011;2470;49.868;8.660;2023-04-06T11:59:42;11.70;;;4.25;;
4909;SDS011;2470;49.868;8.660;2023-04-06T12:02:09;9.45;;;5.30;;
4909;SDS011;2470;49.868;8.660;2023-04-06T12:04:34;11.98;;;4.88;;
4909;SDS011;2470;49.868;8.660;2023-04-06T12:07:00;8.75;;;4.70;;
4909;SDS011;2470;49.868;8.660;2023-04-06T12:09:26;10.77;;;4.55;;
4909;SDS011;2470;49.868;8.660;2023-04-06T12:11:52;10.75;;;5.00;;
4909;SDS011;2470;49.868;8.660;2023-04-06T12:14:17;9.18;;;4.78;;
4909;SDS011;2470;49.868;8.660;2023-04-06T12:16:43;9.70;;;4.28;;
4909;SDS011;2470;49.868;8.660;2023-04-06T12:19:09;13.32;;;4.65;;
4909;SDS011;2470;49.868;8.660;2023-04-06T12:21:34;6.90;;;4.05;;
4909;SDS011;2470;49.868;8.660;2023-04-06T12:24:04;6.85;;;4.93;;
4909;SDS011;2470;49.868;8.660;2023-04-06T12:26:30;6.72;;;4.00;;
4909;SDS011;2470;49.868;8.660;2023-04-06T12:28:56;7.57;;;4.47;;
4909;SDS011;2470;49.868;8.660;2023-04-06T12:31:27;6.53;;;4.18;;
4909;SDS011;2470;49.868;8.660;2023-04-06T12:33:53;6.03;;;4.05;;
4909;SDS011;2470;49.868;8.660;2023-04-06T12:36:19;5.05;;;3.45;;
4909;SDS011;2470;49.868;8.660;2023-04-06T12:38:49;6.75;;;4.38;;
4909;SDS011;2470;49.868;8.660;2023-04-06T12:41:16;5.22;;;4.03;;
4909;SDS011;2470;49.868;8.660;2023-04-06T12:43:42;6.40;;;4.50;;
4909;SDS011;2470;49.868;8.660;2023-04-06T12:46:08;7.90;;;4.03;;
4909;SDS011;2470;49.868;8.660;2023-04-06T12:48:34;9.10;;;5.13;;
4909;SDS011;2470;49.868;8.660;2023-04-06T12:51:01;5.82;;;4.03;;
4909;SDS011;2470;49.868;8.660;2023-04-06T12:53:28;6.38;;;3.97;;
4909;SDS011;2470;49.868;8.660;2023-04-06T12:55:54;7.85;;;4.35;;
4909;SDS011;2470;49.868;8.660;2023-04-06T12:58:21;5.32;;;3.58;;
4909;SDS011;2470;49.868;8.660;2023-04-06T13:00:48;7.00;;;4.30;;
4909;SDS011;2470;49.868;8.660;2023-04-06T13:03:15;7.50;;;3.88;;
4909;SDS011;2470;49.868;8.660;2023-04-06T13:05:44;6.57;;;4.07;;
4909;SDS011;2470;49.868;8.660;2023-04-06T13:08:10;6.68;;;3.95;;
4909;SDS011;2470;49.868;8.660;2023-04-06T13:10:36;6.40;;;3.60;;
4909;SDS011;2470;49.868;8.660;2023-04-06T13:13:02;8.27;;;4.22;;
4909;SDS011;2470;49.868;8.660;2023-04-06T13:15:28;11.70;;;3.70;;
4909;SDS011;2470;49.868;8.660;2023-04-06T13:17:53;4.85;;;3.42;;
4909;SDS011;2470;49.868;8.660;2023-04-06T13:20:19;5.35;;;3.58;;
4909;SDS011;2470;49.868;8.660;2023-04-06T13:22:44;7.72;;;4.78;;
4909;SDS011;2470;49.868;8.660;2023-04-06T13:25:10;9.57;;;4.10;;
4909;SDS011;2470;49.868;8.660;2023-04-06T13:27:35;6.18;;;4.30;;
4909;SDS011;2470;49.868;8.660;2023-04-06T13:30:01;8.88;;;3.45;;
4909;SDS011;2470;49.868;8.660;2023-04-06T13:32:28;6.10;;;3.40;;
4909;SDS011;2470;49.868;8.660;2023-04-06T13:34:55;7.45;;;4.10;;
4909;SDS011;2470;49.868;8.660;2023-04-06T13:37:20;7.45;;;4.03;;
4909;SDS011;2470;49.868;8.660;2023-04-06T13:39:46;10.10;;;4.25;;
4909;SDS011;2470;49.868;8.660;2023-04-06T13:42:12;7.25;;;4.13;;
4909;SDS011;2470;49.868;8.660;2023-04-06T13:44:37;4.80;;;3.60;;
4909;SDS011;2470;49.868;8.660;2023-04-06T13:47:03;9.15;;;4.55;;
4909;SDS011;2470;49.868;8.660;2023-04-06T13:49:28;8.55;;;4.10;;
4909;SDS011;2470;49.868;8.660;2023-04-06T13:51:55;6.00;;;3.72;;
4909;SDS011;2470;49.868;8.660;2023-04-06T13:54:20;8.63;;;4.63;;
4909;SDS011;2470;49.868;8.660;2023-04-06T13:56:46;5.70;;;4.18;;
4909;SDS011;2470;49.868;8.660;2023-04-06T13:59:12;7.18;;;4.57;;
4909;SDS011;2470;49.868;8.660;2023-04-06T14:01:37;9.25;;;4.18;;
4909;SDS011;2470;49.868;8.660;2023-04-06T14:04:03;7.57;;;4.13;;
4909;SDS011;2470;49.868;8.660;2023-04-06T14:06:28;11.20;;;5.00;;
4909;SDS011;2470;49.868;8.660;2023-04-06T14:08:54;7.72;;;5.10;;
4909;SDS011;2470;49.868;8.660;2023-04-06T14:11:19;6.20;;;4.07;;
4909;SDS011;2470;49.868;8.660;2023-04-06T14:13:45;12.13;;;5.13;;
4909;SDS011;2470;49.868;8.660;2023-04-06T14:16:11;5.18;;;3.40;;
4909;SDS011;2470;49.868;8.660;2023-04-06T14:18:37;4.90;;;3.28;;
4909;SDS011;2470;49.868;8.660;2023-04-06T14:21:02;6.97;;;4.53;;
4909;SDS011;2470;49.868;8.660;2023-04-06T14:23:28;6.70;;;4.60;;
4909;SDS011;2470;49.868;8.660;2023-04-06T14:26:03;7.90;;;4.35;;
4909;SDS011;2470;49.868;8.660;2023-04-06T14:28:30;10.93;;;5.38;;
4909;SDS011;2470;49.868;8.660;2023-04-06T14:30:57;6.68;;;3.80;;
4909;SDS011;2470;49.868;8.660;2023-04-06T14:33:24;7.72;;;4.40;;
4909;SDS011;2470;49.868;8.660;2023-04-06T14:35:51;7.32;;;4.20;;
4909;SDS011;2470;49.868;8.660;2023-04-06T14:38:16;9.07;;;4.15;;
4909;SDS011;2470;49.868;8.660;2023-04-06T14:40:42;6.30;;;4.63;;
4909;SDS011;2470;49.868;8.660;2023-04-06T14:43:07;9.30;;;5.25;;
4909;SDS011;2470;49.868;8.660;2023-04-06T14:45:33;9.85;;;4.35;;
4909;SDS011;2470;49.868;8.660;2023-04-06T14:48:00;8.70;;;4.72;;
4909;SDS011;2470;49.868;8.660;2023-04-06T14:50:26;9.55;;;5.20;;
4909;SDS011;2470;49.868;8.660;2023-04-06T14:52:51;8.95;;;4.95;;
4909;SDS011;2470;49.868;8.660;2023-04-06T14:55:16;7.82;;;4.13;;
4909;SDS011;2470;49.868;8.660;2023-04-06T14:57:42;7.20;;;4.40;;
4909;SDS011;2470;49.868;8.660;2023-04-06T15:00:08;9.02;;;4.85;;
4909;SDS011;2470;49.868;8.660;2023-04-06T15:02:34;10.93;;;4.22;;
4909;SDS011;2470;49.868;8.660;2023-04-06T15:04:59;7.38;;;4.20;;
4909;SDS011;2470;49.868;8.660;2023-04-06T15:07:25;9.45;;;4.20;;
4909;SDS011;2470;49.868;8.660;2023-04-06T15:09:51;7.68;;;4.63;;
4909;SDS011;2470;49.868;8.660;2023-04-06T15:12:16;8.60;;;4.10;;
4909;SDS011;2470;49.868;8.660;2023-04-06T15:14:42;7.60;;;4.22;;
4909;SDS011;2470;49.868;8.660;2023-04-06T15:17:07;7.22;;;4.28;;
4909;SDS011;2470;49.868;8.660;2023-04-06T15:19:33;6.72;;;3.80;;
4909;SDS011;2470;49.868;8.660;2023-04-06T15:21:58;7.93;;;4.15;;
4909;SDS011;2470;49.868;8.660;2023-04-06T15:24:24;10.32;;;4.75;;